sensor_id;sensor_type;location;lat;lon;timestamp;P1;durP1;ratioP1;P2;durP2;ratioP2
31716;SDS011;18301;51.076;17.046;2024-03-06T00:03:56;51.90;;;27.65;;
31716;SDS011;18301;51.076;17.046;2024-03-06T00:08:58;54.25;;;29.13;;
31716;SDS011;18301;51.076;17.046;2024-03-06T00:14:00;53.20;;;28.17;;
31716;SDS011;18301;51.076;17.046;2024-03-06T00:19:01;53.30;;;28.67;;
31716;SDS011;18301;51.076;17.046;2024-03-06T00:24:03;55.28;;;28.08;;
31716;SDS011;18301;51.076;17.046;2024-03-06T00:29:05;55.75;;;28.73;;
31716;SDS011;18301;51.076;17.046;2024-03-06T00:34:07;52.88;;;26.67;;
31716;SDS011;18301;51.076;17.046;2024-03-06T00:39:09;54.17;;;28.25;;
31716;SDS011;18301;51.076;17.046;2024-03-06T00:44:11;49.70;;;26.73;;
31716;SDS011;18301;51.076;17.046;2024-03-06T00:49:13;56.83;;;28.98;;
31716;SDS011;18301;51.076;17.046;2024-03-06T00:54:15;53.63;;;28.83;;
31716;SDS011;18301;51.076;17.046;2024-03-06T00:59:16;57.15;;;28.30;;
31716;SDS011;18301;51.076;17.046;2024-03-06T01:04:18;53.78;;;27.92;;
31716;SDS011;18301;51.076;17.046;2024-03-06T01:09:20;52.08;;;27.52;;
31716;SDS011;18301;51.076;17.046;2024-03-06T01:14:21;53.15;;;28.02;;
31716;SDS011;18301;51.076;17.046;2024-03-06T01:19:23;55.47;;;28.10;;
31716;SDS011;18301;51.076;17.046;2024-03-06T01:24:25;53.15;;;28.10;;
31716;SDS011;18301;51.076;17.046;2024-03-06T01:29:26;55.30;;;27.98;;
31716;SDS011;18301;51.076;17.046;2024-03-06T01:34:28;50.65;;;26.48;;
31716;SDS011;18301;51.076;17.046;2024-03-06T01:39:30;57.22;;;28.35;;
31716;SDS011;18301;51.076;17.046;2024-03-06T01:44:31;60.47;;;29.13;;
31716;SDS011;18301;51.076;17.046;2024-03-06T01:49:33;56.42;;;28.48;;
31716;SDS011;18301;51.076;17.046;2024-03-06T01:54:45;56.67;;;29.15;;
31716;SDS011;18301;51.076;17.046;2024-03-06T01:59:49;54.63;;;28.70;;
31716;SDS011;18301;51.076;17.046;2024-03-06T02:04:52;53.00;;;27.30;;
31716;SDS011;18301;51.076;17.046;2024-03-06T02:09:59;54.70;;;27.42;;
31716;SDS011;18301;51.076;17.046;2024-03-06T02:15:00;55.33;;;28.38;;
31716;SDS011;18301;51.076;17.046;2024-03-06T02:20:04;53.42;;;27.80;;
31716;SDS011;18301;51.076;17.046;2024-03-06T02:25:13;53.50;;;27.60;;
31716;SDS011;18301;51.076;17.046;2024-03-06T02:30:20;54.35;;;28.45;;
31716;SDS011;18301;51.076;17.046;2024-03-06T02:35:22;56.17;;;29.17;;
31716;SDS011;18301;51.076;17.046;2024-03-06T02:40:24;58.47;;;29.25;;
31716;SDS011;18301;51.076;17.046;2024-03-06T02:45:26;55.50;;;28.63;;
31716;SDS011;18301;51.076;17.046;2024-03-06T02:50:28;59.25;;;29.25;;
31716;SDS011;18301;51.076;17.046;2024-03-06T02:55:30;56.55;;;29.70;;
31716;SDS011;18301;51.076;17.046;2024-03-06T03:00:31;58.42;;;29.95;;
31716;SDS011;18301;51.076;17.046;2024-03-06T03:05:33;58.80;;;30.73;;
31716;SDS011;18301;51.076;17.046;2024-03-06T03:10:35;61.05;;;30.02;;
31716;SDS011;18301;51.076;17.046;2024-03-06T03:15:36;61.35;;;30.13;;
31716;SDS011;18301;51.076;17.046;2024-03-06T03:20:38;60.65;;;30.75;;
31716;SDS011;18301;51.076;17.046;2024-03-06T03:25:40;58.55;;;30.38;;
31716;SDS011;18301;51.076;17.046;2024-03-06T03:30:43;62.50;;;30.70;;
31716;SDS011;18301;51.076;17.046;2024-03-06T03:35:48;62.75;;;30.98;;
31716;SDS011;18301;51.076;17.046;2024-03-06T03:40:49;62.95;;;30.90;;
31716;SDS011;18301;51.076;17.046;2024-03-06T03:45:51;60.88;;;30.77;;
31716;SDS011;18301;51.076;17.046;2024-03-06T03:50:53;63.08;;;31.92;;
31716;SDS011;18301;51.076;17.046;2024-03-06T03:55:55;61.92;;;32.20;;
31716;SDS011;18301;51.076;17.046;2024-03-06T04:00:56;62.70;;;31.33;;
31716;SDS011;18301;51.076;17.046;2024-03-06T04:05:58;65.40;;;30.92;;
31716;SDS011;18301;51.076;17.046;2024-03-06T04:11:00;62.22;;;32.17;;
31716;SDS011;18301;51.076;17.046;2024-03-06T04:16:02;62.30;;;31.42;;
31716;SDS011;18301;51.076;17.046;2024-03-06T04:21:04;69.15;;;33.28;;
31716;SDS011;18301;51.076;17.046;2024-03-06T04:26:06;63.38;;;31.05;;
31716;SDS011;18301;51.076;17.046;2024-03-06T04:31:08;61.05;;;30.95;;
31716;SDS011;18301;51.076;17.046;2024-03-06T04:36:10;63.40;;;30.77;;
31716;SDS011;18301;51.076;17.046;2024-03-06T04:41:12;63.05;;;31.80;;
31716;SDS011;18301;51.076;17.046;2024-03-06T04:46:14;59.47;;;29.88;;
31716;SDS011;18301;51.076;17.046;2024-03-06T04:51:16;60.25;;;30.02;;
31716;SDS011;18301;51.076;17.046;2024-03-06T04:56:17;58.55;;;29.60;;
31716;SDS011;18301;51.076;17.046;2024-03-06T05:01:23;59.97;;;30.13;;
31716;SDS011;18301;51.076;17.046;2024-03-06T05:06:25;57.45;;;28.88;;
31716;SDS011;18301;51.076;17.046;2024-03-06T05:11:44;62.50;;;30.85;;
31716;SDS011;18301;51.076;17.046;2024-03-06T05:17:03;64.95;;;31.02;;
31716;SDS011;18301;51.076;17.046;2024-03-06T05:22:22;59.67;;;30.45;;
31716;SDS011;18301;51.076;17.046;2024-03-06T05:27:42;61.95;;;30.52;;
31716;SDS011;18301;51.076;17.046;2024-03-06T05:33:01;62.50;;;29.83;;
31716;SDS011;18301;51.076;17.046;2024-03-06T05:38:20;61.40;;;28.77;;
31716;SDS011;18301;51.076;17.046;2024-03-06T05:43:41;56.88;;;28.05;;
31716;SDS011;18301;51.076;17.046;2024-03-06T05:49:00;60.10;;;28.75;;
31716;SDS011;18301;51.076;17.046;2024-03-06T05:54:23;57.35;;;28.35;;
31716;SDS011;18301;51.076;17.046;2024-03-06T05:59:43;60.97;;;28.20;;
31716;SDS011;18301;51.076;17.046;2024-03-06T06:04:45;64.10;;;29.58;;
31716;SDS011;18301;51.076;17.046;2024-03-06T06:10:00;55.75;;;27.60;;
31716;SDS011;18301;51.076;17.046;2024-03-06T06:15:02;54.80;;;27.25;;
31716;SDS011;18301;51.076;17.046;2024-03-06T06:20:07;52.83;;;27.63;;
31716;SDS011;18301;51.076;17.046;2024-03-06T06:25:17;59.08;;;28.30;;
31716;SDS011;18301;51.076;17.046;2024-03-06T06:30:19;52.80;;;26.80;;
31716;SDS011;18301;51.076;17.046;2024-03-06T06:35:21;56.65;;;28.67;;
31716;SDS011;18301;51.076;17.046;2024-03-06T06:40:23;56.05;;;27.77;;
31716;SDS011;18301;51.076;17.046;2024-03-06T06:45:25;56.05;;;28.50;;
31716;SDS011;18301;51.076;17.046;2024-03-06T06:50:27;56.33;;;28.15;;
31716;SDS011;18301;51.076;17.046;2024-03-06T06:55:30;59.78;;;28.42;;
31716;SDS011;18301;51.076;17.046;2024-03-06T07:00:31;58.83;;;27.98;;
31716;SDS011;18301;51.076;17.046;2024-03-06T07:05:34;56.90;;;27.52;;
31716;SDS011;18301;51.076;17.046;2024-03-06T07:10:36;54.17;;;26.90;;
31716;SDS011;18301;51.076;17.046;2024-03-06T07:15:38;51.53;;;26.08;;
31716;SDS011;18301;51.076;17.046;2024-03-06T07:20:40;54.28;;;26.85;;
31716;SDS011;18301;51.076;17.046;2024-03-06T07:25:42;50.53;;;25.80;;
31716;SDS011;18301;51.076;17.046;2024-03-06T07:30:44;48.70;;;25.02;;
31716;SDS011;18301;51.076;17.046;2024-03-06T07:35:45;56.42;;;27.52;;
31716;SDS011;18301;51.076;17.046;2024-03-06T07:40:47;53.30;;;26.75;;
31716;SDS011;18301;51.076;17.046;2024-03-06T07:45:49;47.22;;;24.30;;
31716;SDS011;18301;51.076;17.046;2024-03-06T07:50:51;50.03;;;25.25;;
31716;SDS011;18301;51.076;17.046;2024-03-06T07:55:52;48.65;;;23.77;;
31716;SDS011;18301;51.076;17.046;2024-03-06T08:00:54;52.88;;;26.48;;
31716;SDS011;18301;51.076;17.046;2024-03-06T08:05:57;49.92;;;26.48;;
31716;SDS011;18301;51.076;17.046;2024-03-06T08:10:59;49.38;;;24.65;;
31716;SDS011;18301;51.076;17.046;2024-03-06T08:16:01;49.30;;;25.98;;
31716;SDS011;18301;51.076;17.046;2024-03-06T08:21:03;52.40;;;26.58;;
31716;SDS011;18301;51.076;17.046;2024-03-06T08:26:06;52.67;;;26.65;;
31716;SDS011;18301;51.076;17.046;2024-03-06T08:31:08;50.63;;;26.00;;
31716;SDS011;18301;51.076;17.046;2024-03-06T08:36:10;49.35;;;26.55;;
31716;SDS011;18301;51.076;17.046;2024-03-06T08:41:11;50.58;;;26.60;;
31716;SDS011;18301;51.076;17.046;2024-03-06T08:46:13;47.63;;;25.77;;
31716;SDS011;18301;51.076;17.046;2024-03-06T08:51:15;41.72;;;21.92;;
31716;SDS011;18301;51.076;17.046;2024-03-06T08:56:16;42.75;;;22.83;;
31716;SDS011;18301;51.076;17.046;2024-03-06T09:01:18;41.20;;;22.42;;
31716;SDS011;18301;51.076;17.046;2024-03-06T09:06:20;39.88;;;21.58;;
31716;SDS011;18301;51.076;17.046;2024-03-06T09:11:22;31.85;;;18.30;;
31716;SDS011;18301;51.076;17.046;2024-03-06T09:16:24;35.47;;;18.27;;
31716;SDS011;18301;51.076;17.046;2024-03-06T09:21:25;30.83;;;17.77;;
31716;SDS011;18301;51.076;17.046;2024-03-06T09:26:27;29.75;;;16.75;;
31716;SDS011;18301;51.076;17.046;2024-03-06T09:31:29;32.78;;;17.88;;
31716;SDS011;18301;51.076;17.046;2024-03-06T09:36:30;29.42;;;15.95;;
31716;SDS011;18301;51.076;17.046;2024-03-06T09:41:34;26.40;;;15.27;;
31716;SDS011;18301;51.076;17.046;2024-03-06T09:46:36;25.30;;;15.88;;
31716;SDS011;18301;51.076;17.046;2024-03-06T09:51:38;28.17;;;15.80;;
31716;SDS011;18301;51.076;17.046;2024-03-06T09:56:46;25.90;;;14.55;;
31716;SDS011;18301;51.076;17.046;2024-03-06T10:01:53;19.20;;;11.55;;
31716;SDS011;18301;51.076;17.046;2024-03-06T10:06:57;18.52;;;11.65;;
31716;SDS011;18301;51.076;17.046;2024-03-06T10:12:00;23.88;;;13.02;;
31716;SDS011;18301;51.076;17.046;2024-03-06T10:17:07;22.42;;;12.60;;
31716;SDS011;18301;51.076;17.046;2024-03-06T10:22:08;17.98;;;10.25;;
31716;SDS011;18301;51.076;17.046;2024-03-06T10:27:14;22.48;;;12.90;;
31716;SDS011;18301;51.076;17.046;2024-03-06T10:32:17;20.52;;;12.30;;
31716;SDS011;18301;51.076;17.046;2024-03-06T10:37:22;21.13;;;12.00;;
31716;SDS011;18301;51.076;17.046;2024-03-06T10:42:26;22.08;;;13.13;;
31716;SDS011;18301;51.076;17.046;2024-03-06T10:47:30;24.55;;;13.23;;
31716;SDS011;18301;51.076;17.046;2024-03-06T10:52:32;26.40;;;15.02;;
31716;SDS011;18301;51.076;17.046;2024-03-06T10:57:36;26.02;;;15.25;;
31716;SDS011;18301;51.076;17.046;2024-03-06T11:02:38;29.48;;;16.35;;
31716;SDS011;18301;51.076;17.046;2024-03-06T11:07:41;26.10;;;15.90;;
31716;SDS011;18301;51.076;17.046;2024-03-06T11:12:45;28.08;;;16.52;;
31716;SDS011;18301;51.076;17.046;2024-03-06T11:17:50;26.08;;;15.43;;
31716;SDS011;18301;51.076;17.046;2024-03-06T11:28:03;30.13;;;17.13;;
31716;SDS011;18301;51.076;17.046;2024-03-06T11:33:06;27.50;;;15.88;;
31716;SDS011;18301;51.076;17.046;2024-03-06T11:38:10;28.23;;;16.38;;
31716;SDS011;18301;51.076;17.046;2024-03-06T11:43:27;36.65;;;17.08;;
31716;SDS011;18301;51.076;17.046;2024-03-06T11:48:29;28.42;;;16.17;;
31716;SDS011;18301;51.076;17.046;2024-03-06T11:53:32;25.42;;;13.88;;
31716;SDS011;18301;51.076;17.046;2024-03-06T11:58:40;25.20;;;14.27;;
31716;SDS011;18301;51.076;17.046;2024-03-06T12:03:42;24.50;;;13.48;;
31716;SDS011;18301;51.076;17.046;2024-03-06T12:08:44;23.65;;;13.52;;
31716;SDS011;18301;51.076;17.046;2024-03-06T12:13:47;25.35;;;14.20;;
31716;SDS011;18301;51.076;17.046;2024-03-06T12:18:56;25.52;;;14.45;;
31716;SDS011;18301;51.076;17.046;2024-03-06T12:24:02;28.67;;;16.20;;
31716;SDS011;18301;51.076;17.046;2024-03-06T12:29:08;28.92;;;14.60;;
31716;SDS011;18301;51.076;17.046;2024-03-06T12:34:13;25.90;;;15.10;;
31716;SDS011;18301;51.076;17.046;2024-03-06T12:39:18;29.73;;;16.55;;
31716;SDS011;18301;51.076;17.046;2024-03-06T12:44:24;27.10;;;15.95;;
31716;SDS011;18301;51.076;17.046;2024-03-06T12:49:26;26.30;;;15.90;;
31716;SDS011;18301;51.076;17.046;2024-03-06T12:54:28;30.27;;;14.63;;
31716;SDS011;18301;51.076;17.046;2024-03-06T12:59:29;23.90;;;13.63;;
31716;SDS011;18301;51.076;17.046;2024-03-06T13:04:31;23.98;;;14.10;;
31716;SDS011;18301;51.076;17.046;2024-03-06T13:09:33;24.05;;;13.43;;
31716;SDS011;18301;51.076;17.046;2024-03-06T13:14:34;23.48;;;13.75;;
31716;SDS011;18301;51.076;17.046;2024-03-06T13:19:36;23.00;;;12.82;;
31716;SDS011;18301;51.076;17.046;2024-03-06T13:24:39;22.95;;;12.73;;
31716;SDS011;18301;51.076;17.046;2024-03-06T13:29:44;25.65;;;12.88;;
31716;SDS011;18301;51.076;17.046;2024-03-06T13:34:46;24.77;;;12.35;;
31716;SDS011;18301;51.076;17.046;2024-03-06T13:39:48;24.25;;;12.82;;
31716;SDS011;18301;51.076;17.046;2024-03-06T13:44:49;24.38;;;13.20;;
31716;SDS011;18301;51.076;17.046;2024-03-06T13:49:51;27.27;;;15.77;;
31716;SDS011;18301;51.076;17.046;2024-03-06T13:54:53;35.75;;;17.52;;
31716;SDS011;18301;51.076;17.046;2024-03-06T13:59:55;33.00;;;18.17;;
31716;SDS011;18301;51.076;17.046;2024-03-06T14:04:56;34.33;;;18.75;;
31716;SDS011;18301;51.076;17.046;2024-03-06T14:09:58;34.15;;;19.50;;
31716;SDS011;18301;51.076;17.046;2024-03-06T14:15:08;35.70;;;20.10;;
31716;SDS011;18301;51.076;17.046;2024-03-06T14:20:17;36.60;;;19.92;;
31716;SDS011;18301;51.076;17.046;2024-03-06T14:25:19;37.75;;;20.92;;
31716;SDS011;18301;51.076;17.046;2024-03-06T14:30:21;50.45;;;22.30;;
31716;SDS011;18301;51.076;17.046;2024-03-06T14:35:23;45.70;;;22.52;;
31716;SDS011;18301;51.076;17.046;2024-03-06T14:40:26;38.90;;;20.92;;
31716;SDS011;18301;51.076;17.046;2024-03-06T14:45:28;38.08;;;21.25;;
31716;SDS011;18301;51.076;17.046;2024-03-06T14:50:30;38.92;;;20.30;;
31716;SDS011;18301;51.076;17.046;2024-03-06T14:55:32;38.72;;;20.30;;
31716;SDS011;18301;51.076;17.046;2024-03-06T15:00:33;34.42;;;18.90;;
31716;SDS011;18301;51.076;17.046;2024-03-06T15:05:35;34.65;;;17.38;;
31716;SDS011;18301;51.076;17.046;2024-03-06T15:10:37;32.65;;;18.38;;
31716;SDS011;18301;51.076;17.046;2024-03-06T15:15:39;32.20;;;16.95;;
31716;SDS011;18301;51.076;17.046;2024-03-06T15:20:41;32.03;;;18.17;;
31716;SDS011;18301;51.076;17.046;2024-03-06T15:25:43;29.05;;;16.55;;
31716;SDS011;18301;51.076;17.046;2024-03-06T15:30:45;32.67;;;16.60;;
31716;SDS011;18301;51.076;17.046;2024-03-06T15:35:47;33.55;;;17.10;;
31716;SDS011;18301;51.076;17.046;2024-03-06T15:40:48;31.67;;;16.92;;
31716;SDS011;18301;51.076;17.046;2024-03-06T15:45:52;28.55;;;16.23;;
31716;SDS011;18301;51.076;17.046;2024-03-06T15:50:55;33.88;;;17.10;;
31716;SDS011;18301;51.076;17.046;2024-03-06T15:55:56;33.13;;;16.30;;
31716;SDS011;18301;51.076;17.046;2024-03-06T16:00:58;31.85;;;16.65;;
31716;SDS011;18301;51.076;17.046;2024-03-06T16:06:03;32.97;;;16.40;;
31716;SDS011;18301;51.076;17.046;2024-03-06T16:11:18;36.05;;;18.77;;
31716;SDS011;18301;51.076;17.046;2024-03-06T16:16:20;35.33;;;18.77;;
31716;SDS011;18301;51.076;17.046;2024-03-06T16:21:22;34.78;;;19.08;;
31716;SDS011;18301;51.076;17.046;2024-03-06T16:26:30;33.55;;;18.98;;
31716;SDS011;18301;51.076;17.046;2024-03-06T16:31:33;32.35;;;17.45;;
31716;SDS011;18301;51.076;17.046;2024-03-06T16:36:35;34.53;;;19.35;;
31716;SDS011;18301;51.076;17.046;2024-03-06T16:41:37;31.50;;;18.50;;
31716;SDS011;18301;51.076;17.046;2024-03-06T16:46:42;31.10;;;17.75;;
31716;SDS011;18301;51.076;17.046;2024-03-06T16:51:43;29.17;;;16.92;;
31716;SDS011;18301;51.076;17.046;2024-03-06T16:56:45;33.92;;;18.98;;
31716;SDS011;18301;51.076;17.046;2024-03-06T17:01:47;29.38;;;16.48;;
31716;SDS011;18301;51.076;17.046;2024-03-06T17:06:49;31.83;;;17.73;;
31716;SDS011;18301;51.076;17.046;2024-03-06T17:11:50;34.85;;;18.23;;
31716;SDS011;18301;51.076;17.046;2024-03-06T17:16:52;31.17;;;18.33;;
31716;SDS011;18301;51.076;17.046;2024-03-06T17:21:54;34.80;;;18.70;;
31716;SDS011;18301;51.076;17.046;2024-03-06T17:26:55;30.98;;;17.90;;
31716;SDS011;18301;51.076;17.046;2024-03-06T17:31:57;34.22;;;19.10;;
31716;SDS011;18301;51.076;17.046;2024-03-06T17:36:59;33.58;;;18.92;;
31716;SDS011;18301;51.076;17.046;2024-03-06T17:42:01;35.15;;;19.42;;
31716;SDS011;18301;51.076;17.046;2024-03-06T17:47:03;35.47;;;19.63;;
31716;SDS011;18301;51.076;17.046;2024-03-06T17:52:05;35.40;;;20.23;;
31716;SDS011;18301;51.076;17.046;2024-03-06T17:57:06;35.70;;;20.08;;
31716;SDS011;18301;51.076;17.046;2024-03-06T18:02:09;33.22;;;18.77;;
31716;SDS011;18301;51.076;17.046;2024-03-06T18:07:11;33.28;;;18.60;;
31716;SDS011;18301;51.076;17.046;2024-03-06T18:12:13;36.00;;;19.70;;
31716;SDS011;18301;51.076;17.046;2024-03-06T18:17:14;35.17;;;19.75;;
31716;SDS011;18301;51.076;17.046;2024-03-06T18:22:16;34.38;;;19.17;;
31716;SDS011;18301;51.076;17.046;2024-03-06T18:27:18;34.47;;;19.55;;
31716;SDS011;18301;51.076;17.046;2024-03-06T18:32:19;38.35;;;19.75;;
31716;SDS011;18301;51.076;17.046;2024-03-06T18:37:21;33.58;;;19.20;;
31716;SDS011;18301;51.076;17.046;2024-03-06T18:42:23;38.05;;;21.48;;
31716;SDS011;18301;51.076;17.046;2024-03-06T18:47:25;41.33;;;21.35;;
31716;SDS011;18301;51.076;17.046;2024-03-06T18:52:27;40.75;;;21.98;;
31716;SDS011;18301;51.076;17.046;2024-03-06T18:57:29;38.95;;;20.98;;
31716;SDS011;18301;51.076;17.046;2024-03-06T19:02:31;41.83;;;21.58;;
31716;SDS011;18301;51.076;17.046;2024-03-06T19:07:33;42.42;;;22.17;;
31716;SDS011;18301;51.076;17.046;2024-03-06T19:12:35;47.17;;;23.90;;
31716;SDS011;18301;51.076;17.046;2024-03-06T19:17:36;51.03;;;24.60;;
31716;SDS011;18301;51.076;17.046;2024-03-06T19:22:38;47.40;;;22.50;;
31716;SDS011;18301;51.076;17.046;2024-03-06T19:27:41;50.28;;;24.08;;
31716;SDS011;18301;51.076;17.046;2024-03-06T19:32:43;43.83;;;22.42;;
31716;SDS011;18301;51.076;17.046;2024-03-06T19:37:55;40.55;;;22.88;;
31716;SDS011;18301;51.076;17.046;2024-03-06T19:42:57;48.33;;;25.40;;
31716;SDS011;18301;51.076;17.046;2024-03-06T19:47:58;48.97;;;24.00;;
31716;SDS011;18301;51.076;17.046;2024-03-06T19:53:00;50.72;;;24.00;;
31716;SDS011;18301;51.076;17.046;2024-03-06T19:58:03;46.17;;;23.23;;
31716;SDS011;18301;51.076;17.046;2024-03-06T20:03:05;49.95;;;25.88;;
31716;SDS011;18301;51.076;17.046;2024-03-06T20:08:07;49.53;;;25.45;;
31716;SDS011;18301;51.076;17.046;2024-03-06T20:13:09;49.22;;;23.83;;
31716;SDS011;18301;51.076;17.046;2024-03-06T20:18:11;47.00;;;23.75;;
31716;SDS011;18301;51.076;17.046;2024-03-06T20:23:15;49.10;;;23.40;;
31716;SDS011;18301;51.076;17.046;2024-03-06T20:28:17;43.38;;;21.38;;
31716;SDS011;18301;51.076;17.046;2024-03-06T20:33:25;42.43;;;21.37;;
31716;SDS011;18301;51.076;17.046;2024-03-06T20:38:27;39.22;;;20.10;;
31716;SDS011;18301;51.076;17.046;2024-03-06T20:43:29;40.63;;;20.05;;
31716;SDS011;18301;51.076;17.046;2024-03-06T20:48:31;37.13;;;19.45;;
31716;SDS011;18301;51.076;17.046;2024-03-06T20:53:34;38.88;;;19.67;;
31716;SDS011;18301;51.076;17.046;2024-03-06T20:58:36;37.65;;;19.20;;
31716;SDS011;18301;51.076;17.046;2024-03-06T21:03:38;36.40;;;18.67;;
31716;SDS011;18301;51.076;17.046;2024-03-06T21:08:40;34.90;;;18.35;;
31716;SDS011;18301;51.076;17.046;2024-03-06T21:13:42;35.35;;;18.73;;
31716;SDS011;18301;51.076;17.046;2024-03-06T21:18:44;37.83;;;19.05;;
31716;SDS011;18301;51.076;17.046;2024-03-06T21:23:46;35.78;;;18.33;;
31716;SDS011;18301;51.076;17.046;2024-03-06T21:28:49;36.67;;;18.08;;
31716;SDS011;18301;51.076;17.046;2024-03-06T21:33:55;39.13;;;19.55;;
31716;SDS011;18301;51.076;17.046;2024-03-06T21:38:58;32.83;;;18.48;;
31716;SDS011;18301;51.076;17.046;2024-03-06T21:44:00;35.67;;;17.75;;
31716;SDS011;18301;51.076;17.046;2024-03-06T21:49:04;33.22;;;18.10;;
31716;SDS011;18301;51.076;17.046;2024-03-06T21:54:08;36.33;;;18.63;;
31716;SDS011;18301;51.076;17.046;2024-03-06T21:59:09;36.42;;;18.88;;
31716;SDS011;18301;51.076;17.046;2024-03-06T22:04:11;37.00;;;18.13;;
31716;SDS011;18301;51.076;17.046;2024-03-06T22:09:16;39.13;;;18.63;;
31716;SDS011;18301;51.076;17.046;2024-03-06T22:14:18;35.65;;;17.50;;
31716;SDS011;18301;51.076;17.046;2024-03-06T22:19:20;35.05;;;17.67;;
31716;SDS011;18301;51.076;17.046;2024-03-06T22:24:23;35.67;;;18.67;;
31716;SDS011;18301;51.076;17.046;2024-03-06T22:29:24;35.25;;;18.50;;
31716;SDS011;18301;51.076;17.046;2024-03-06T22:34:26;37.72;;;18.52;;
31716;SDS011;18301;51.076;17.046;2024-03-06T22:39:28;34.95;;;18.27;;
31716;SDS011;18301;51.076;17.046;2024-03-06T22:44:29;31.00;;;15.63;;
31716;SDS011;18301;51.076;17.046;2024-03-06T22:49:31;34.20;;;17.48;;
31716;SDS011;18301;51.076;17.046;2024-03-06T22:54:33;37.60;;;19.27;;
31716;SDS011;18301;51.076;17.046;2024-03-06T22:59:36;39.15;;;19.25;;
31716;SDS011;18301;51.076;17.046;2024-03-06T23:04:38;35.28;;;18.50;;
31716;SDS011;18301;51.076;17.046;2024-03-06T23:09:40;40.17;;;20.02;;
31716;SDS011;18301;51.076;17.046;2024-03-06T23:14:41;41.65;;;19.77;;
31716;SDS011;18301;51.076;17.046;2024-03-06T23:19:43;40.05;;;19.85;;
31716;SDS011;18301;51.076;17.046;2024-03-06T23:24:45;36.58;;;19.73;;
31716;SDS011;18301;51.076;17.046;2024-03-06T23:29:47;37.25;;;19.65;;
31716;SDS011;18301;51.076;17.046;2024-03-06T23:34:48;35.10;;;17.23;;
31716;SDS011;18301;51.076;17.046;2024-03-06T23:39:50;40.70;;;19.90;;
31716;SDS011;18301;51.076;17.046;2024-03-06T23:44:52;45.30;;;20.70;;
31716;SDS011;18301;51.076;17.046;2024-03-06T23:49:54;38.03;;;19.67;;
31716;SDS011;18301;51.076;17.046;2024-03-06T23:54:55;34.08;;;18.70;;
31716;SDS011;18301;51.076;17.046;2024-03-06T23:59:57;41.30;;;20.13;;
